createdAt,value
2023-03-13T00:00:20.899Z,12.07
2023-03-13T00:10:22.551Z,15.40
2023-03-13T00:20:24.853Z,12.60
2023-03-13T00:30:26.633Z,16.30
2023-03-13T00:40:28.288Z,12.77
2023-03-13T00:50:29.907Z,15.10
2023-03-13T01:00:31.587Z,10.53
2023-03-13T01:10:33.239Z,16.13
2023-03-13T01:20:34.873Z,12.50
2023-03-13T01:30:36.637Z,9.63
2023-03-13T01:40:46.204Z,10.47
2023-03-13T01:50:47.950Z,11.33
2023-03-13T02:00:50.240Z,12.47
2023-03-13T02:10:58.786Z,12.07
2023-03-13T02:21:09.964Z,12.40
2023-03-13T02:31:12.291Z,13.13
2023-03-13T02:41:15.050Z,13.67
2023-03-13T02:51:29.261Z,11.77
2023-03-13T03:01:30.876Z,15.67
2023-03-13T03:11:32.577Z,7.97
2023-03-13T03:21:35.023Z,11.00
2023-03-13T03:31:36.702Z,12.30
2023-03-13T03:41:38.389Z,8.27
2023-03-13T03:51:40.590Z,10.03
2023-03-13T04:01:43.041Z,9.47
2023-03-13T04:11:45.128Z,8.17
2023-03-13T04:21:46.751Z,14.67
2023-03-13T04:31:48.346Z,8.70
2023-03-13T04:41:49.962Z,10.80
2023-03-13T04:51:52.000Z,9.63
2023-03-13T05:01:53.667Z,7.00
2023-03-13T05:18:44.853Z,6.80
2023-03-13T05:28:46.488Z,6.47
2023-03-13T05:38:48.156Z,6.33
2023-03-13T05:48:49.887Z,23.47
2023-03-13T05:58:51.545Z,4.87
2023-03-13T06:08:53.752Z,5.50
2023-03-13T06:22:17.086Z,5.23
2023-03-13T06:32:18.863Z,5.73
2023-03-13T06:42:20.503Z,4.63
2023-03-13T06:52:26.457Z,6.57
2023-03-13T07:02:33.203Z,4.27
2023-03-13T07:12:35.671Z,4.87
2023-03-13T07:22:38.021Z,6.43
2023-03-13T07:32:39.715Z,4.13
2023-03-13T07:42:42.195Z,6.13
2023-03-13T07:52:43.937Z,3.60
2023-03-13T08:02:46.024Z,2.87
2023-03-13T08:12:47.709Z,2.93
2023-03-13T08:22:52.582Z,1.43
2023-03-13T08:32:54.336Z,5.03
2023-03-13T08:42:55.990Z,3.77
2023-03-13T08:52:57.707Z,4.10
2023-03-13T09:02:59.399Z,2.17
2023-03-13T09:13:01.461Z,1.67
2023-03-13T09:23:03.591Z,2.50
2023-03-13T09:33:05.308Z,3.37
2023-03-13T09:43:33.419Z,2.63
2023-03-13T09:53:44.116Z,2.63
2023-03-13T10:03:57.603Z,1.53
2023-03-13T10:14:05.785Z,5.50
2023-03-13T10:24:37.861Z,1.93
2023-03-13T10:35:00.554Z,4.33
2023-03-13T10:45:04.872Z,4.30
2023-03-13T10:55:10.561Z,2.00
2023-03-13T11:05:31.715Z,2.30
2023-03-13T11:15:45.736Z,2.57
2023-03-13T11:26:04.753Z,5.43
2023-03-13T11:36:29.078Z,2.47
2023-03-13T11:46:40.949Z,3.60
2023-03-13T11:56:51.510Z,3.63
2023-03-13T12:07:26.189Z,2.77
2023-03-13T12:17:34.883Z,3.13
2023-03-13T12:27:44.777Z,2.20
2023-03-13T12:37:55.294Z,2.10
2023-03-13T12:48:23.371Z,2.53
2023-03-13T12:58:27.112Z,4.27
2023-03-13T13:08:52.247Z,10.13
2023-03-13T13:18:54.023Z,4.87
2023-03-13T13:28:58.028Z,6.20
2023-03-13T13:38:59.766Z,3.30
2023-03-13T13:49:07.847Z,2.27
2023-03-13T13:59:15.317Z,2.70
2023-03-13T14:09:54.715Z,2.23
2023-03-13T14:19:56.682Z,2.37
2023-03-13T14:30:03.926Z,3.30
2023-03-13T14:40:10.829Z,3.37
2023-03-13T14:50:14.929Z,2.67
2023-03-13T15:00:44.079Z,2.85
2023-03-13T15:10:46.556Z,2.17
2023-03-13T15:20:55.690Z,2.45
2023-03-13T15:30:57.417Z,1.63
2023-03-13T15:40:59.079Z,10.10
2023-03-13T15:51:04.039Z,2.72
2023-03-13T16:01:06.008Z,9.33
2023-03-13T16:11:07.921Z,2.63
2023-03-13T16:21:15.457Z,5.07
2023-03-13T16:31:25.621Z,13.33
2023-03-13T16:41:28.359Z,9.53
2023-03-13T16:51:30.657Z,20.20
2023-03-13T17:01:32.769Z,1.90
2023-03-13T17:11:34.427Z,2.87
2023-03-13T17:21:36.744Z,3.77
2023-03-13T17:31:38.626Z,3.27
2023-03-13T17:41:40.697Z,3.37
2023-03-13T17:51:44.473Z,2.87
2023-03-13T18:01:46.177Z,3.17
2023-03-13T18:11:48.878Z,3.33
2023-03-13T18:21:53.140Z,2.63
2023-03-13T18:32:00.438Z,3.17
2023-03-13T18:42:02.254Z,2.10
2023-03-13T18:52:04.105Z,3.83
2023-03-13T19:02:11.739Z,3.30
2023-03-13T19:12:15.335Z,2.17
2023-03-13T19:22:17.010Z,3.10
2023-03-13T19:32:19.345Z,4.70
2023-03-13T19:42:21.022Z,6.43
2023-03-13T19:52:22.644Z,5.20
2023-03-13T20:02:24.375Z,4.67
2023-03-13T20:12:26.094Z,3.07
2023-03-13T20:22:27.801Z,3.60
2023-03-13T20:32:29.745Z,2.43
2023-03-13T20:42:31.397Z,4.10
2023-03-13T20:52:33.190Z,3.00
2023-03-13T21:02:34.846Z,1.83
2023-03-13T21:12:36.475Z,1.97
2023-03-13T21:22:42.871Z,2.23
2023-03-13T21:32:45.730Z,1.60
2023-03-13T21:42:47.430Z,2.83
2023-03-13T21:52:49.067Z,3.57
2023-03-13T22:02:50.673Z,2.20
2023-03-13T22:12:52.283Z,1.23
2023-03-13T22:22:54.081Z,0.83
2023-03-13T22:32:55.849Z,0.93
2023-03-13T22:42:57.520Z,1.63
2023-03-13T22:53:42.841Z,1.03
2023-03-13T23:03:44.938Z,1.30
2023-03-13T23:13:46.966Z,0.70
2023-03-13T23:23:48.852Z,1.00
2023-03-13T23:33:50.606Z,1.13
2023-03-13T23:43:52.280Z,1.97
2023-03-13T23:53:53.929Z,3.60
